createdAt,value
2023-11-04T00:01:01.685Z,98290.78
2023-11-04T00:03:37.800Z,98291.56
2023-11-04T00:06:06.478Z,98290.78
2023-11-04T00:08:33.487Z,98282.47
2023-11-04T00:11:00.496Z,98287.25
2023-11-04T00:13:27.474Z,98277.34
2023-11-04T00:15:57.154Z,98285.59
2023-11-04T00:18:24.276Z,98287.28
2023-11-04T00:20:52.442Z,98289.13
2023-11-04T00:23:19.752Z,98287.50
2023-11-04T00:25:46.734Z,98282.97
2023-11-04T00:28:13.802Z,98281.31
2023-11-04T00:30:40.940Z,98280.28
2023-11-04T00:33:10.625Z,98280.06
2023-11-04T00:35:37.955Z,98280.06
2023-11-04T00:38:04.977Z,98278.41
2023-11-04T00:40:31.946Z,98269.94
2023-11-04T00:42:59.137Z,98276.34
2023-11-04T00:45:26.182Z,98267.66
2023-11-04T00:47:53.257Z,98269.31
2023-11-04T00:50:22.890Z,98267.25
2023-11-04T00:52:49.928Z,98258.16
2023-11-04T00:55:16.976Z,98256.72
2023-11-04T00:57:44.067Z,98264.38
2023-11-04T01:00:12.719Z,98252.38
2023-11-04T01:02:40.192Z,98242.03
2023-11-04T01:05:07.847Z,98242.22
2023-11-04T01:07:37.540Z,98237.50
2023-11-04T01:10:05.152Z,98240.38
2023-11-04T01:12:32.181Z,98231.06
2023-11-04T01:14:59.208Z,98237.47
2023-11-04T01:17:26.252Z,98237.88
2023-11-04T01:19:53.321Z,98227.94
2023-11-04T01:22:20.309Z,98215.56
2023-11-04T01:24:50.244Z,98215.13
2023-11-04T01:27:17.369Z,98214.72
2023-11-04T01:29:44.428Z,98206.44
2023-11-04T01:32:11.441Z,98211.38
2023-11-04T01:34:38.686Z,98215.56
2023-11-04T01:37:05.831Z,98228.78
2023-11-04T01:39:34.022Z,98233.75
2023-11-04T01:42:07.705Z,98229.41
2023-11-04T01:44:35.235Z,98228.38
2023-11-04T01:47:02.676Z,98234.38
2023-11-04T01:49:30.514Z,98222.59
2023-11-04T01:51:58.520Z,98229.19
2023-11-04T01:54:27.931Z,98225.47
2023-11-04T01:56:55.285Z,98214.31
2023-11-04T01:59:25.482Z,98212.25
2023-11-04T02:01:52.835Z,98208.72
2023-11-04T02:04:20.034Z,98210.56
2023-11-04T02:06:47.182Z,98197.78
2023-11-04T02:09:14.327Z,98195.28
2023-11-04T02:11:41.541Z,98187.84
2023-11-04T02:14:10.052Z,98189.47
2023-11-04T02:16:39.656Z,98192.41
2023-11-04T02:19:06.702Z,98189.47
2023-11-04T02:21:36.432Z,98184.91
2023-11-04T02:24:03.832Z,98172.31
2023-11-04T02:26:31.020Z,98178.72
2023-11-04T02:28:58.016Z,98182.22
2023-11-04T02:31:25.014Z,98188.88
2023-11-04T02:33:52.081Z,98186.59
2023-11-04T02:36:19.287Z,98190.75
2023-11-04T02:38:48.945Z,98189.91
2023-11-04T02:41:15.980Z,98189.94
2023-11-04T02:43:42.963Z,98193.00
2023-11-04T02:46:09.915Z,98193.63
2023-11-04T02:48:37.099Z,98182.47
2023-11-04T02:51:04.949Z,98185.13
2023-11-04T02:53:31.932Z,98183.28
2023-11-04T02:56:01.484Z,98181.63
2023-11-04T02:58:28.439Z,98178.50
2023-11-04T03:00:55.966Z,98174.16
2023-11-04T03:03:23.600Z,98171.03
2023-11-04T03:05:50.647Z,98167.09
2023-11-04T03:08:17.749Z,98170.00
2023-11-04T03:10:44.785Z,98172.66
2023-11-04T03:13:14.422Z,98177.00
2023-11-04T03:15:41.485Z,98174.31
2023-11-04T03:18:08.738Z,98167.09
2023-11-04T03:20:35.795Z,98158.19
2023-11-04T03:23:02.827Z,98151.78
2023-11-04T03:25:29.813Z,98157.56
2023-11-04T03:27:56.858Z,98156.72
2023-11-04T03:30:26.511Z,98154.47
2023-11-04T03:32:53.498Z,98163.34
2023-11-04T03:35:20.524Z,98152.81
2023-11-04T03:37:47.489Z,98151.78
2023-11-04T03:40:14.636Z,98149.72
2023-11-04T03:42:41.651Z,98142.66
2023-11-04T03:45:09.314Z,98145.97
2023-11-04T03:47:39.001Z,98139.19
2023-11-04T03:50:07.164Z,98141.88
2023-11-04T03:52:34.196Z,98138.56
2023-11-04T03:55:01.232Z,98132.75
2023-11-04T03:57:28.282Z,98131.31
2023-11-04T03:59:55.816Z,98126.78
2023-11-04T04:02:22.812Z,98129.47
2023-11-04T04:04:54.797Z,98121.19
2023-11-04T04:07:21.794Z,98115.00
2023-11-04T04:09:48.796Z,98114.78
2023-11-04T04:12:15.792Z,98114.16
2023-11-04T04:14:42.828Z,98109.00
2023-11-04T04:17:09.764Z,98105.88
2023-11-04T04:19:38.193Z,98100.50
2023-11-04T04:22:08.337Z,98097.03
2023-11-04T04:24:35.394Z,98090.59
2023-11-04T04:27:02.389Z,98083.16
2023-11-04T04:29:29.346Z,98086.88
2023-11-04T04:31:56.324Z,98082.34
2023-11-04T04:34:23.275Z,98080.28
2023-11-04T04:36:50.295Z,98084.03
2023-11-04T04:39:19.917Z,98085.22
2023-11-04T04:41:46.923Z,98085.88
2023-11-04T04:44:13.913Z,98085.66
2023-11-04T04:46:41.058Z,98077.56
2023-11-04T04:49:08.189Z,98070.94
2023-11-04T04:51:35.369Z,98071.72
2023-11-04T04:54:02.499Z,98068.84
2023-11-04T04:56:32.099Z,98058.72
2023-11-04T04:58:59.104Z,98065.31
2023-11-04T05:01:26.358Z,98067.78
2023-11-04T05:03:53.408Z,98059.13
2023-11-04T05:06:20.421Z,98055.59
2023-11-04T05:08:47.398Z,98054.75
2023-11-04T05:11:14.440Z,98052.25
2023-11-04T05:13:44.239Z,98046.19
2023-11-04T05:16:11.272Z,98046.81
2023-11-04T05:18:38.351Z,98046.16
2023-11-04T05:21:06.048Z,98044.09
2023-11-04T05:23:33.324Z,98043.47
2023-11-04T05:26:01.016Z,98043.72
2023-11-04T05:28:28.131Z,98034.97
2023-11-04T05:30:57.795Z,98034.56
2023-11-04T05:33:25.001Z,98028.16
2023-11-04T05:35:52.091Z,98025.25
2023-11-04T05:38:19.167Z,98015.97
2023-11-04T05:40:46.389Z,98013.28
2023-11-04T05:43:13.410Z,98011.81
2023-11-04T05:45:40.513Z,98014.72
2023-11-04T05:48:10.293Z,98012.69
2023-11-04T05:50:37.368Z,98010.97
2023-11-04T05:53:04.344Z,98001.44
2023-11-04T05:55:31.351Z,98000.16
2023-11-04T05:57:58.389Z,97996.44
2023-11-04T06:00:25.851Z,97994.56
2023-11-04T06:02:52.931Z,97984.63
2023-11-04T06:05:22.599Z,97979.03
2023-11-04T06:07:49.604Z,97977.81
2023-11-04T06:10:17.084Z,97973.72
2023-11-04T06:12:44.212Z,97972.22
2023-11-04T06:15:11.389Z,97964.16
2023-11-04T06:17:38.454Z,97968.94
2023-11-04T06:20:06.920Z,97972.69
2023-11-04T06:22:36.521Z,97964.38
2023-11-04T06:25:05.287Z,97969.53
2023-11-04T06:27:33.652Z,97970.03
2023-11-04T06:30:00.824Z,97961.59
2023-11-04T06:32:27.865Z,97951.06
2023-11-04T06:34:54.934Z,97945.06
2023-11-04T06:37:22.057Z,97954.47
2023-11-04T06:39:51.668Z,97956.47
2023-11-04T06:42:18.733Z,97962.69
2023-11-04T06:44:45.850Z,97954.63
2023-11-04T06:47:12.913Z,97951.78
2023-11-04T06:49:40.042Z,97955.66
2023-11-04T06:52:07.070Z,97950.28
2023-11-04T06:54:34.105Z,97939.94
2023-11-04T06:57:04.265Z,97936.84
2023-11-04T06:59:31.394Z,97929.38
2023-11-04T07:01:58.343Z,97923.38
2023-11-04T07:04:25.359Z,97923.81
2023-11-04T07:06:53.636Z,97928.16
2023-11-04T07:09:20.668Z,97918.00
2023-11-04T07:11:47.675Z,97925.25
2023-11-04T07:14:17.323Z,97918.63
2023-11-04T07:16:44.611Z,97923.38
2023-11-04T07:19:11.766Z,97910.16
2023-11-04T07:21:39.255Z,97911.16
2023-11-04T07:24:07.638Z,97913.84
2023-11-04T07:26:34.605Z,97897.72
2023-11-04T07:29:01.759Z,97902.22
2023-11-04T07:31:31.387Z,97891.84
2023-11-04T07:33:58.619Z,97883.53
2023-11-04T07:36:26.365Z,97879.81
2023-11-04T07:38:53.815Z,97871.47
2023-11-04T07:41:20.835Z,97876.41
2023-11-04T07:43:48.378Z,97880.16
2023-11-04T07:46:15.647Z,97885.53
2023-11-04T07:48:45.382Z,97873.75
2023-11-04T07:51:12.546Z,97869.81
2023-11-04T07:53:39.635Z,97872.66
2023-11-04T07:56:07.516Z,97873.50
2023-11-04T07:58:34.524Z,97874.72
2023-11-04T08:01:01.736Z,97870.59
2023-11-04T08:03:28.866Z,97865.34
2023-11-04T08:05:58.591Z,97867.63
2023-11-04T08:08:25.659Z,97858.44
2023-11-04T08:10:52.899Z,97860.03
2023-11-04T08:13:19.880Z,97859.13
2023-11-04T08:15:47.043Z,97857.31
2023-11-04T08:18:14.198Z,97847.56
2023-11-04T08:20:41.236Z,97838.44
2023-11-04T08:23:10.847Z,97831.31
2023-11-04T08:25:37.886Z,97829.81
2023-11-04T08:28:05.385Z,97832.19
2023-11-04T08:30:32.503Z,97823.81
2023-11-04T08:32:59.606Z,97820.19
2023-11-04T08:35:26.690Z,97810.53
2023-11-04T08:37:53.794Z,97809.03
2023-11-04T08:40:23.456Z,97799.22
2023-11-04T08:42:50.521Z,97809.13
2023-11-04T08:45:17.611Z,97801.38
2023-11-04T08:47:44.668Z,97793.66
2023-11-04T08:50:12.164Z,97794.03
2023-11-04T08:52:39.226Z,97783.00
2023-11-04T08:55:07.568Z,97776.22
2023-11-04T08:57:37.515Z,97767.81
2023-11-04T09:00:05.774Z,97769.31
2023-11-04T09:02:32.806Z,97756.09
2023-11-04T09:05:05.571Z,97745.78
2023-11-04T09:07:35.203Z,97739.69
2023-11-04T09:10:02.488Z,97746.28
2023-11-04T09:12:29.698Z,97746.38
2023-11-04T09:14:59.576Z,97729.84
2023-11-04T09:17:26.689Z,97729.50
2023-11-04T09:19:53.716Z,97722.69
2023-11-04T09:22:20.775Z,97716.94
2023-11-04T09:24:47.780Z,97709.41
2023-11-04T09:27:14.830Z,97699.78
2023-11-04T09:29:41.856Z,97697.69
2023-11-04T09:32:11.455Z,97697.19
2023-11-04T09:34:38.755Z,97683.13
2023-11-04T09:37:05.876Z,97681.81
2023-11-04T09:39:32.882Z,97690.81
2023-11-04T09:42:00.026Z,97673.84
2023-11-04T09:44:27.231Z,97674.97
2023-11-04T09:46:54.417Z,97674.75
2023-11-04T09:49:24.109Z,97664.03
2023-11-04T09:51:54.744Z,97665.59
2023-11-04T09:54:23.371Z,97662.88
2023-11-04T09:56:50.413Z,97663.56
2023-11-04T09:59:17.559Z,97650.31
2023-11-04T10:01:44.605Z,97644.06
2023-11-04T10:04:11.835Z,97642.78
2023-11-04T10:06:41.575Z,97635.25
2023-11-04T10:09:08.804Z,97618.81
2023-11-04T10:11:35.822Z,97614.06
2023-11-04T10:14:02.882Z,97597.16
2023-11-04T10:16:30.228Z,97595.44
2023-11-04T10:18:57.627Z,97589.66
2023-11-04T10:21:24.876Z,97578.25
2023-11-04T10:23:54.992Z,97577.22
2023-11-04T10:26:22.056Z,97579.44
2023-11-04T10:28:49.434Z,97583.38
2023-11-04T10:31:18.973Z,97577.22
2023-11-04T10:33:49.306Z,97577.66
2023-11-04T10:36:16.786Z,97567.47
2023-11-04T10:38:48.373Z,97568.38
2023-11-04T10:41:20.628Z,97557.16
2023-11-04T10:43:52.941Z,97556.66
2023-11-04T10:46:43.113Z,97547.72
2023-11-04T10:49:20.711Z,97537.97
2023-11-04T10:51:56.262Z,97531.50
2023-11-04T10:54:31.921Z,97529.78
2023-11-04T10:57:11.740Z,97520.59
2023-11-04T10:59:52.098Z,97513.78
2023-11-04T11:02:19.549Z,97503.59
2023-11-04T11:04:49.464Z,97502.66
2023-11-04T11:07:19.881Z,97494.28
2023-11-04T11:09:48.691Z,97488.59
2023-11-04T11:12:24.091Z,97485.06
2023-11-04T11:14:52.748Z,97475.88
2023-11-04T11:17:30.036Z,97470.59
2023-11-04T11:19:57.224Z,97474.66
2023-11-04T11:22:25.205Z,97452.34
2023-11-04T11:24:52.997Z,97456.88
2023-11-04T11:27:24.758Z,97456.00
2023-11-04T11:29:52.450Z,97448.91
2023-11-04T11:32:19.571Z,97433.97
2023-11-04T11:34:50.071Z,97431.59
2023-11-04T11:37:21.544Z,97427.50
2023-11-04T11:39:48.826Z,97426.38
2023-11-04T11:42:15.969Z,97420.94
2023-11-04T11:44:45.878Z,97422.53
2023-11-04T11:47:13.000Z,97428.03
2023-11-04T11:49:39.992Z,97418.50
2023-11-04T11:52:07.181Z,97423.81
2023-11-04T11:54:34.421Z,97424.72
2023-11-04T11:57:02.123Z,97402.63
2023-11-04T11:59:29.188Z,97402.09
2023-11-04T12:02:01.476Z,97399.06
2023-11-04T12:04:30.236Z,97396.09
2023-11-04T12:06:57.436Z,97381.31
2023-11-04T12:09:24.424Z,97343.34
2023-11-04T12:11:52.016Z,97318.47
2023-11-04T12:14:19.233Z,97308.88
2023-11-04T12:16:47.577Z,97309.34
2023-11-04T12:19:18.234Z,97310.13
2023-11-04T12:21:45.425Z,97311.28
2023-11-04T12:24:12.704Z,97294.25
2023-11-04T12:26:39.783Z,97275.13
2023-11-04T12:29:06.858Z,97281.88
2023-11-04T12:31:33.955Z,97282.00
2023-11-04T12:34:03.464Z,97281.94
2023-11-04T12:36:33.235Z,97272.09
2023-11-04T12:39:00.363Z,97275.41
2023-11-04T12:41:28.264Z,97265.38
2023-11-04T12:43:55.464Z,97259.13
2023-11-04T12:46:22.974Z,97272.50
2023-11-04T12:48:50.285Z,97265.72
2023-11-04T12:51:17.606Z,97267.50
2023-11-04T12:53:47.224Z,97268.81
2023-11-04T12:56:14.291Z,97272.69
2023-11-04T12:58:41.398Z,97264.97
2023-11-04T13:01:08.615Z,97249.59
2023-11-04T13:03:35.778Z,97239.78
2023-11-04T13:06:02.961Z,97204.47
2023-11-04T13:08:30.060Z,97150.19
2023-11-04T13:10:59.978Z,97132.34
2023-11-04T13:13:27.181Z,97147.16
2023-11-04T13:15:54.193Z,97172.16
2023-11-04T13:18:21.303Z,97156.94
2023-11-04T13:20:48.323Z,97164.09
2023-11-04T13:23:17.892Z,97146.63
2023-11-04T13:25:46.298Z,97160.91
2023-11-04T13:28:15.980Z,97155.25
2023-11-04T13:30:43.227Z,97161.38
2023-11-04T13:33:10.416Z,97165.13
2023-11-04T13:35:37.759Z,97167.66
2023-11-04T13:38:04.923Z,97159.03
2023-11-04T13:40:31.913Z,97149.91
2023-11-04T13:42:59.108Z,97141.09
2023-11-04T13:45:28.741Z,97152.25
2023-11-04T13:47:55.797Z,97147.88
2023-11-04T13:50:22.949Z,97154.59
2023-11-04T13:52:50.027Z,97156.47
2023-11-04T13:55:17.120Z,97159.19
2023-11-04T13:57:44.252Z,97153.69
2023-11-04T14:00:12.290Z,97125.94
2023-11-04T14:02:42.045Z,97161.50
2023-11-04T14:05:09.615Z,97165.97
2023-11-04T14:07:36.866Z,97161.63
2023-11-04T14:10:04.425Z,97124.25
2023-11-04T14:12:31.606Z,97115.22
2023-11-04T14:14:58.621Z,97099.59
2023-11-04T14:17:26.044Z,97099.97
2023-11-04T14:19:55.775Z,97078.13
2023-11-04T14:22:22.792Z,97088.41
2023-11-04T14:24:49.877Z,97075.19
2023-11-04T14:27:16.999Z,97081.06
2023-11-04T14:29:43.993Z,97088.69
2023-11-04T14:32:11.113Z,97086.88
2023-11-04T14:34:38.244Z,97094.16
2023-11-04T14:37:08.130Z,97085.97
2023-11-04T14:39:35.578Z,97076.81
2023-11-04T14:42:02.592Z,97024.38
2023-11-04T14:44:29.705Z,97021.47
2023-11-04T14:46:56.861Z,97040.59
2023-11-04T14:49:34.544Z,97036.78
2023-11-04T14:52:01.783Z,97042.97
2023-11-04T14:54:31.585Z,97024.81
2023-11-04T14:57:00.540Z,96991.34
2023-11-04T14:59:29.021Z,96976.75
2023-11-04T15:01:56.072Z,96967.00
2023-11-04T15:04:23.636Z,96955.31
2023-11-04T15:06:50.860Z,96990.75
2023-11-04T15:09:17.916Z,96983.75
2023-11-04T15:11:47.561Z,96996.16
2023-11-04T15:14:14.735Z,96988.63
2023-11-04T15:16:41.990Z,96994.84
2023-11-04T15:19:09.178Z,96997.81
2023-11-04T15:21:36.532Z,97011.28
2023-11-04T15:24:03.994Z,97012.84
2023-11-04T15:26:31.007Z,97020.19
2023-11-04T15:29:00.701Z,97014.44
2023-11-04T15:31:27.825Z,97013.13
2023-11-04T15:33:54.912Z,97000.97
2023-11-04T15:36:21.996Z,96987.47
2023-11-04T15:38:49.105Z,96983.59
2023-11-04T15:41:16.147Z,96986.31
2023-11-04T15:43:43.180Z,96973.63
2023-11-04T15:46:12.816Z,96970.09
2023-11-04T15:48:40.047Z,96969.38
2023-11-04T15:51:07.614Z,96963.34
2023-11-04T15:53:34.910Z,96974.09
2023-11-04T15:56:03.349Z,96959.31
2023-11-04T15:58:31.488Z,96926.63
2023-11-04T16:00:58.906Z,96951.50
2023-11-04T16:03:28.635Z,96973.63
2023-11-04T16:05:55.899Z,96963.09
2023-11-04T16:08:23.294Z,96943.09
2023-11-04T16:10:50.281Z,96952.84
2023-11-04T16:13:17.427Z,96952.91
2023-11-04T16:15:44.593Z,96942.69
2023-11-04T16:18:11.728Z,96944.38
2023-11-04T16:20:41.651Z,96945.31
2023-11-04T16:23:08.765Z,96952.09
2023-11-04T16:25:35.969Z,96942.66
2023-11-04T16:28:02.991Z,96962.84
2023-11-04T16:30:30.048Z,96960.69
2023-11-04T16:32:57.601Z,96945.84
2023-11-04T16:35:24.779Z,96952.09
2023-11-04T16:37:54.367Z,96951.56
2023-11-04T16:40:21.652Z,96925.91
2023-11-04T16:42:48.708Z,96959.16
2023-11-04T16:45:17.049Z,96943.50
2023-11-04T16:47:44.879Z,96974.81
2023-11-04T16:50:12.287Z,96936.47
2023-11-04T16:52:39.330Z,96932.69
2023-11-04T16:55:09.598Z,96943.78
2023-11-04T16:57:36.775Z,96933.78
2023-11-04T17:00:04.809Z,96938.94
2023-11-04T17:02:31.803Z,96946.81
2023-11-04T17:04:59.108Z,96952.22
2023-11-04T17:07:26.293Z,96965.47
2023-11-04T17:09:53.376Z,96981.47
2023-11-04T17:12:23.045Z,96971.47
2023-11-04T17:14:50.606Z,96967.19
2023-11-04T17:17:17.748Z,96978.28
2023-11-04T17:19:44.781Z,96965.84
2023-11-04T17:22:12.056Z,96981.56
2023-11-04T17:24:39.465Z,96985.88
2023-11-04T17:27:06.488Z,96972.94
2023-11-04T17:29:36.303Z,96959.66
2023-11-04T17:32:03.383Z,96983.75
2023-11-04T17:34:30.572Z,96977.75
2023-11-04T17:36:57.719Z,96979.34
2023-11-04T17:39:24.950Z,96961.81
2023-11-04T17:41:51.996Z,96962.63
2023-11-04T17:44:18.996Z,96971.81
2023-11-04T17:46:48.586Z,96959.63
2023-11-04T17:49:15.535Z,96965.88
2023-11-04T17:51:42.588Z,96964.81
2023-11-04T17:54:09.731Z,96964.25
2023-11-04T17:56:36.843Z,96959.66
2023-11-04T17:59:04.135Z,96973.44
2023-11-04T18:01:31.260Z,96961.28
2023-11-04T18:04:01.062Z,96961.56
2023-11-04T18:06:28.209Z,96958.31
2023-11-04T18:08:55.229Z,96964.81
2023-11-04T18:11:22.284Z,96949.69
2023-11-04T18:13:49.320Z,96952.94
2023-11-04T18:16:16.449Z,96942.94
2023-11-04T18:18:43.605Z,96945.09
2023-11-04T18:21:13.371Z,96929.41
2023-11-04T18:23:40.464Z,96921.81
2023-11-04T18:26:07.557Z,96912.13
2023-11-04T18:28:34.596Z,96903.75
2023-11-04T18:31:01.756Z,96889.16
2023-11-04T18:33:28.871Z,96903.75
2023-11-04T18:35:56.017Z,96901.56
2023-11-04T18:38:26.008Z,96910.25
2023-11-04T18:40:53.002Z,96909.44
2023-11-04T18:43:20.158Z,96903.75
2023-11-04T18:45:47.375Z,96916.47
2023-11-04T18:48:14.639Z,96921.34
2023-11-04T18:50:41.932Z,96918.34
2023-11-04T18:53:08.984Z,96903.19
2023-11-04T18:55:38.633Z,96915.66
2023-11-04T18:58:05.818Z,96935.69
2023-11-04T19:00:32.933Z,96925.97
2023-11-04T19:03:01.158Z,96929.78
2023-11-04T19:05:28.458Z,96929.47
2023-11-04T19:07:57.980Z,96929.22
2023-11-04T19:10:27.419Z,96934.13
2023-11-04T19:12:57.207Z,96914.09
2023-11-04T19:15:24.221Z,96918.97
2023-11-04T19:17:51.532Z,96921.94
2023-11-04T19:20:21.446Z,96922.75
2023-11-04T19:22:48.488Z,96938.97
2023-11-04T19:25:17.725Z,96934.94
2023-11-04T19:27:44.837Z,96941.16
2023-11-04T19:30:14.963Z,96931.94
2023-11-04T19:32:42.028Z,96935.75
2023-11-04T19:35:10.038Z,96949.78
2023-11-04T19:37:37.133Z,96944.38
2023-11-04T19:40:05.085Z,96940.59
2023-11-04T19:42:32.908Z,96943.06
2023-11-04T19:44:59.982Z,96946.06
2023-11-04T19:47:34.084Z,96931.44
2023-11-04T19:50:01.326Z,96928.19
2023-11-04T19:52:28.400Z,96941.72
2023-11-04T19:54:55.575Z,96933.59
2023-11-04T19:57:22.769Z,96948.72
2023-11-04T19:59:49.868Z,96949.28
2023-11-04T20:02:19.541Z,96937.34
2023-11-04T20:04:49.351Z,96935.72
2023-11-04T20:07:16.694Z,96934.38
2023-11-04T20:09:45.205Z,96961.44
2023-11-04T20:12:14.280Z,96972.47
2023-11-04T20:14:41.344Z,96973.56
2023-11-04T20:17:08.952Z,96988.44
2023-11-04T20:19:36.080Z,97009.50
2023-11-04T20:22:05.776Z,97017.03
2023-11-04T20:24:32.905Z,97009.97
2023-11-04T20:27:00.115Z,97039.16
2023-11-04T20:29:27.166Z,97048.09
2023-11-04T20:31:54.210Z,97062.06
2023-11-04T20:34:21.324Z,97075.19
2023-11-04T20:36:48.450Z,97078.16
2023-11-04T20:39:18.241Z,97091.63
2023-11-04T20:41:45.301Z,97095.81
2023-11-04T20:44:12.449Z,97102.41
2023-11-04T20:46:39.607Z,97076.97
2023-11-04T20:49:06.744Z,97074.59
2023-11-04T20:51:33.777Z,97077.50
2023-11-04T20:54:00.848Z,97071.44
2023-11-04T20:56:30.564Z,97069.06
2023-11-04T20:58:57.598Z,97076.28
2023-11-04T21:01:24.706Z,97070.50
2023-11-04T21:03:51.943Z,97067.00
2023-11-04T21:06:19.027Z,97063.75
2023-11-04T21:08:46.674Z,97053.66
2023-11-04T21:11:13.799Z,97051.41
2023-11-04T21:13:43.455Z,97057.13
2023-11-04T21:16:10.976Z,96989.59
2023-11-04T21:18:38.321Z,96997.63
2023-11-04T21:21:06.973Z,96982.72
2023-11-04T21:23:34.079Z,96981.28
2023-11-04T21:26:01.725Z,96977.75
2023-11-04T21:28:29.550Z,96976.34
2023-11-04T21:30:59.447Z,96980.09
2023-11-04T21:33:32.431Z,96972.88
2023-11-04T21:35:59.916Z,96975.75
2023-11-04T21:38:27.097Z,96971.56
2023-11-04T21:40:54.124Z,96980.84
2023-11-04T21:43:21.316Z,96983.78
2023-11-04T21:45:48.339Z,96979.66
2023-11-04T21:48:18.032Z,96976.91
2023-11-04T21:50:45.055Z,96982.84
2023-11-04T21:53:12.092Z,96985.63
2023-11-04T21:55:39.133Z,96985.63
2023-11-04T21:58:06.181Z,96984.25
2023-11-04T22:00:33.229Z,96992.31
2023-11-04T22:03:00.318Z,96978.53
2023-11-04T22:05:29.986Z,96978.91
2023-11-04T22:07:57.023Z,96971.44
2023-11-04T22:10:24.121Z,96974.22
2023-11-04T22:12:51.231Z,96972.25
2023-11-04T22:15:18.483Z,96968.00
2023-11-04T22:17:45.917Z,96955.91
2023-11-04T22:20:13.175Z,96969.31
2023-11-04T22:22:42.800Z,96971.69
2023-11-04T22:25:10.097Z,96961.78
2023-11-04T22:27:37.166Z,96952.91
2023-11-04T22:30:05.260Z,96947.81
2023-11-04T22:32:32.318Z,96956.34
2023-11-04T22:34:59.343Z,96960.16
2023-11-04T22:37:26.435Z,96949.97
2023-11-04T22:39:56.134Z,96939.59
2023-11-04T22:42:23.155Z,96940.41
2023-11-04T22:44:50.144Z,96927.38
2023-11-04T22:47:17.164Z,96929.00
2023-11-04T22:49:44.272Z,96923.72
2023-11-04T22:52:11.389Z,96929.13
2023-11-04T22:54:38.541Z,96921.88
2023-11-04T22:57:08.268Z,96925.16
2023-11-04T22:59:35.303Z,96921.13
2023-11-04T23:02:02.331Z,96919.78
2023-11-04T23:04:29.575Z,96915.22
2023-11-04T23:06:56.628Z,96914.44
2023-11-04T23:09:23.759Z,96911.50
2023-11-04T23:11:50.973Z,96905.56
2023-11-04T23:14:20.596Z,96898.81
2023-11-04T23:16:47.622Z,96896.44
2023-11-04T23:19:14.666Z,96899.97
2023-11-04T23:21:41.856Z,96902.41
2023-11-04T23:24:09.414Z,96898.34
2023-11-04T23:26:36.466Z,96892.72
2023-11-04T23:29:03.620Z,96889.28
2023-11-04T23:31:33.274Z,96889.31
2023-11-04T23:34:00.369Z,96895.03
2023-11-04T23:36:27.422Z,96894.50
2023-11-04T23:38:54.437Z,96892.38
2023-11-04T23:41:23.757Z,96873.78
2023-11-04T23:43:50.754Z,96878.41
2023-11-04T23:46:17.881Z,96871.41
2023-11-04T23:48:47.515Z,96876.47
2023-11-04T23:51:14.565Z,96867.56
2023-11-04T23:53:41.628Z,96867.00
2023-11-04T23:56:09.559Z,96858.91
2023-11-04T23:58:36.649Z,96858.91
